< < Back
Terminal Aerodrome Forecast


Current Version              Previous Versions:   1  2  3  4  5  6  7  8  9  

Terminal Aerodrome Forecast

878
FTUS44 KMOB 231700
TAFMOB
TAF
KMOB 231734Z 2318/2418 15006KT P6SM VCTS SCT020CB SCT050 OVC250
      TEMPO 2320/2324 5SM TSRA BKN030CB OVC100
     FM240200 VRB03KT P6SM VCTS BKN030CB BKN250=

Latest METAR

435
SAUS80 KWBC 240000
MTRMOB
METAR KMOB 232356Z 18005KT 10SM FEW025CB FEW250 28/23 A2999 RMK AO2
SLP152 CB SW AND W MOV N CB DSNT E TCU N T02780228 10283
20267 55011


USA.gov is the U.S. government's official web portal to all federal, state and local government web resources and services.